Tucson, AZ (85741)

2:42 PM MST on August 03, 2015 (GMT -0700)
The Ponderosa/Omni Tucson National | | Change Station
CLOSE
Current Station
Personal Weather Station
Location: Tucson, AZ
Elevation: 2375 ft
Nearby Weather Stations

Elev 2375 ft 32.36 °N, 111.03 °W | Updated 45 seconds ago

Clear
Clear
106.3 °F
Feels Like 104 °F
N
3.1
Wind Variable Wind from West
Gusts 6.0 mph

Today
High -- | Low -- °F
--% Chance of Precip.
Yesterday
High -- | Low -- °F
Precip. -- in
5:40 AM 7:20 PM
Waning Gibbous, 84% visible
Pressure 29.78 in
Visibility 10.0 miles
Clouds Clear
Heat Index 104 °F
Dew Point 51 °F
Humidity 16%
Rainfall 0.00 in
Snow Depth Not available.
UV 11 out of 12
Pollen 4.80 out of 12
Air Quality Not available.
Flu Activity Not available.
METAR KDMA 032058Z AUTO 33005KT 10SM CLR 38/10 A2993 RMK AO2 SLP084 T03750098 57016 $

More Conditions Fewer Conditions

Pressure 29.78 in
Visibility 10.0 miles
Clouds Clear
Heat Index 104 °F
Dew Point 51 °F
Humidity 16%
Rainfall 0.00 in
Snow Depth Not available.
UV 11 out of 12
Pollen 4.80 out of 12
Air Quality Not available.
Flu Activity Not available.
METAR KDMA 032058Z AUTO 33005KT 10SM CLR 38/10 A2993 RMK AO2 SLP084 T03750098 57016 $

More Conditions Fewer Conditions

10-Day Weather Forecast

×

Almanac

Astronomy

Aug. 03, 2015 Rise Set
Actual Time
Civil Twilight
Nautical Twilight
Astronomical Twilight
Moon
Length of Visible Light
Length of Day
Tomorrow will be .
, % of the Moon is Illuminated

Today's Extremes

State Highs State Lows

Community

WunderPhotos

Upload Photos

1,843,770 photos uploaded!

WunderBlogs® & News

Nearby

Air Quality

  Air Quality AQ Index Pollutant
Not available.

Snow Depth

Station Depth Elevation

Earthquake Activity

City Distance Mag. Time & Date
Minimum magnitude displayed is 2.5.

Coastal Water Temperatures

Place Temperature

Stations

Nearby Weather Stations

Station Location Temp. Windchill Dew Point Humidity Wind Precip. Elev Updated Type